Aspers, Pennsylvania
Current Conditions -  °F | °C
As of 10:53 PM on Wednesday 28 Jan 2015 (Local Time) from KTHV Reporting Station
Clear Clear  
Wind Chill: -17°   Ceiling: Unl
Heat Index: -12°   Visibility: 10mi
Dew Point: -17°   Wind: 6mph
Humidity: 64%   Direction: 300°WNW
Pressure: 30.3"   Gusts: NA
Location:  39.98°N, 77.22°W
Report Text: KTHV 290353Z AUTO 30005KT 10SM CLR M12/M17 A3030 RMK AO2 SLP271 T11171172
Loading
Personal Weather Stations






























Interactive Weather Map New forecast layout! Learn more

10-Day Weather Forecast

Advertisements
Track Severe Weather on mobile